sensor_id;sensor_type;location;lat;lon;timestamp;pressure;altitude;pressure_sealevel;temperature;humidity
38197;BME280;26543;51.976;4.616;2022-10-16T00:00:46;52879.91;;;-140.72;100.00
38197;BME280;26543;51.976;4.616;2022-10-16T00:03:11;52894.13;;;-140.72;100.00
38197;BME280;26543;51.976;4.616;2022-10-16T00:05:42;52934.69;;;-140.72;100.00
38197;BME280;26543;51.976;4.616;2022-10-16T00:08:10;52918.47;;;-140.72;100.00
38197;BME280;26543;51.976;4.616;2022-10-16T00:10:36;52906.28;;;-140.72;100.00
38197;BME280;26543;51.976;4.616;2022-10-16T00:13:01;52896.16;;;-140.72;100.00
38197;BME280;26543;51.976;4.616;2022-10-16T00:15:27;52890.06;;;-140.72;100.00
38197;BME280;26543;51.976;4.616;2022-10-16T00:17:53;52934.69;;;-140.72;100.00
38197;BME280;26543;51.976;4.616;2022-10-16T00:20:18;52888.03;;;-140.72;100.00
38197;BME280;26543;51.976;4.616;2022-10-16T00:22:43;52886.00;;;-140.72;100.00
38197;BME280;26543;51.976;4.616;2022-10-16T00:25:09;52930.66;;;-140.72;100.00
38197;BME280;26543;51.976;4.616;2022-10-16T00:27:34;52902.22;;;-140.72;100.00
38197;BME280;26543;51.976;4.616;2022-10-16T00:30:00;52900.19;;;-140.72;100.00
38197;BME280;26543;51.976;4.616;2022-10-16T00:32:26;52920.50;;;-140.72;100.00
38197;BME280;26543;51.976;4.616;2022-10-16T00:34:51;52930.66;;;-140.72;100.00
38197;BME280;26543;51.976;4.616;2022-10-16T00:37:20;52912.38;;;-140.72;100.00
38197;BME280;26543;51.976;4.616;2022-10-16T00:39:45;52914.41;;;-140.72;100.00
38197;BME280;26543;51.976;4.616;2022-10-16T00:42:18;52914.41;;;-140.72;100.00
38197;BME280;26543;51.976;4.616;2022-10-16T00:44:54;52896.16;;;-140.72;100.00
38197;BME280;26543;51.976;4.616;2022-10-16T00:49:53;52902.22;;;-140.72;100.00
38197;BME280;26543;51.976;4.616;2022-10-16T00:52:21;52914.41;;;-140.72;100.00
38197;BME280;26543;51.976;4.616;2022-10-16T00:54:46;52908.31;;;-140.72;100.00
38197;BME280;26543;51.976;4.616;2022-10-16T00:57:14;52902.22;;;-140.72;100.00
38197;BME280;26543;51.976;4.616;2022-10-16T00:59:41;52898.16;;;-140.72;100.00
38197;BME280;26543;51.976;4.616;2022-10-16T01:02:12;52892.09;;;-140.72;100.00
38197;BME280;26543;51.976;4.616;2022-10-16T01:04:47;52912.38;;;-140.72;100.00
38197;BME280;26543;51.976;4.616;2022-10-16T01:13:01;52928.63;;;-140.72;100.00
38197;BME280;26543;51.976;4.616;2022-10-16T01:18:11;52932.66;;;-140.72;100.00
38197;BME280;26543;51.976;4.616;2022-10-16T01:20:54;52910.34;;;-140.72;100.00
38197;BME280;26543;51.976;4.616;2022-10-16T01:28:15;52881.94;;;-140.72;100.00
38197;BME280;26543;51.976;4.616;2022-10-16T01:30:44;52926.59;;;-140.72;100.00
38197;BME280;26543;51.976;4.616;2022-10-16T01:33:21;52883.97;;;-140.72;100.00
38197;BME280;26543;51.976;4.616;2022-10-16T01:35:52;52922.53;;;-140.72;100.00
38197;BME280;26543;51.976;4.616;2022-10-16T01:38:31;52942.81;;;-140.72;100.00
38197;BME280;26543;51.976;4.616;2022-10-16T01:41:17;52930.66;;;-140.72;100.00
38197;BME280;26543;51.976;4.616;2022-10-16T01:44:11;52910.34;;;-140.72;100.00
38197;BME280;26543;51.976;4.616;2022-10-16T01:46:39;52928.63;;;-140.72;100.00
38197;BME280;26543;51.976;4.616;2022-10-16T01:49:06;52932.66;;;-140.72;100.00
38197;BME280;26543;51.976;4.616;2022-10-16T01:51:34;52910.34;;;-140.72;100.00
38197;BME280;26543;51.976;4.616;2022-10-16T01:54:01;52934.69;;;-140.72;100.00
38197;BME280;26543;51.976;4.616;2022-10-16T01:56:29;52916.44;;;-140.72;100.00
38197;BME280;26543;51.976;4.616;2022-10-16T01:58:59;52950.94;;;-140.72;100.00
38197;BME280;26543;51.976;4.616;2022-10-16T02:01:29;52948.91;;;-140.72;100.00
38197;BME280;26543;51.976;4.616;2022-10-16T02:03:58;52955.00;;;-140.72;100.00
38197;BME280;26543;51.976;4.616;2022-10-16T02:06:26;52936.72;;;-140.72;100.00
38197;BME280;26543;51.976;4.616;2022-10-16T02:08:53;52977.31;;;-140.72;100.00
38197;BME280;26543;51.976;4.616;2022-10-16T02:11:18;52890.06;;;-140.72;100.00
38197;BME280;26543;51.976;4.616;2022-10-16T02:13:51;52930.66;;;-140.72;100.00
38197;BME280;26543;51.976;4.616;2022-10-16T02:16:18;52942.81;;;-140.72;100.00
38197;BME280;26543;51.976;4.616;2022-10-16T02:18:43;52920.50;;;-140.72;100.00
38197;BME280;26543;51.976;4.616;2022-10-16T02:24:22;52906.28;;;-140.72;100.00
38197;BME280;26543;51.976;4.616;2022-10-16T02:27:33;52886.00;;;-140.72;100.00
38197;BME280;26543;51.976;4.616;2022-10-16T02:29:45;52914.41;;;-140.72;100.00
38197;BME280;26543;51.976;4.616;2022-10-16T02:32:17;52914.41;;;-140.72;100.00
38197;BME280;26543;51.976;4.616;2022-10-16T02:34:45;52942.81;;;-140.72;100.00
38197;BME280;26543;51.976;4.616;2022-10-16T02:37:12;52904.25;;;-140.72;100.00
38197;BME280;26543;51.976;4.616;2022-10-16T02:39:38;52892.09;;;-140.72;100.00
38197;BME280;26543;51.976;4.616;2022-10-16T02:42:10;52918.47;;;-140.72;100.00
38197;BME280;26543;51.976;4.616;2022-10-16T02:44:35;52928.63;;;-140.72;100.00
38197;BME280;26543;51.976;4.616;2022-10-16T02:47:00;52940.78;;;-140.72;100.00
38197;BME280;26543;51.976;4.616;2022-10-16T02:49:26;52914.41;;;-140.72;100.00
38197;BME280;26543;51.976;4.616;2022-10-16T02:51:51;52987.47;;;-140.72;100.00
38197;BME280;26543;51.976;4.616;2022-10-16T02:54:16;52965.16;;;-140.72;100.00
38197;BME280;26543;51.976;4.616;2022-10-16T02:56:42;52922.53;;;-140.72;100.00
38197;BME280;26543;51.976;4.616;2022-10-16T02:59:07;52944.84;;;-140.72;100.00
38197;BME280;26543;51.976;4.616;2022-10-16T03:01:32;52934.69;;;-140.72;100.00
38197;BME280;26543;51.976;4.616;2022-10-16T03:03:58;52934.69;;;-140.72;100.00
38197;BME280;26543;51.976;4.616;2022-10-16T03:06:23;52906.28;;;-140.72;100.00
38197;BME280;26543;51.976;4.616;2022-10-16T03:08:48;52920.50;;;-140.72;100.00
38197;BME280;26543;51.976;4.616;2022-10-16T03:11:14;52991.53;;;-140.72;100.00
38197;BME280;26543;51.976;4.616;2022-10-16T03:13:39;52944.84;;;-140.72;100.00
38197;BME280;26543;51.976;4.616;2022-10-16T03:16:04;52918.47;;;-140.72;100.00
38197;BME280;26543;51.976;4.616;2022-10-16T03:18:30;52940.78;;;-140.72;100.00
38197;BME280;26543;51.976;4.616;2022-10-16T03:20:55;52932.66;;;-140.72;100.00
38197;BME280;26543;51.976;4.616;2022-10-16T03:23:20;52930.66;;;-140.72;100.00
38197;BME280;26543;51.976;4.616;2022-10-16T03:25:46;52896.16;;;-140.72;100.00
38197;BME280;26543;51.976;4.616;2022-10-16T03:28:11;52898.16;;;-140.72;100.00
38197;BME280;26543;51.976;4.616;2022-10-16T03:30:36;52906.28;;;-140.72;100.00
38197;BME280;26543;51.976;4.616;2022-10-16T03:33:02;52908.31;;;-140.72;100.00
38197;BME280;26543;51.976;4.616;2022-10-16T03:35:27;52938.75;;;-140.72;100.00
38197;BME280;26543;51.976;4.616;2022-10-16T03:37:52;52934.69;;;-140.72;100.00
38197;BME280;26543;51.976;4.616;2022-10-16T03:40:18;52918.47;;;-140.72;100.00
38197;BME280;26543;51.976;4.616;2022-10-16T03:42:43;52926.59;;;-140.72;100.00
38197;BME280;26543;51.976;4.616;2022-10-16T03:45:09;52898.16;;;-140.72;100.00
38197;BME280;26543;51.976;4.616;2022-10-16T03:47:35;52971.22;;;-140.72;100.00
38197;BME280;26543;51.976;4.616;2022-10-16T03:50:00;52938.75;;;-140.72;100.00
38197;BME280;26543;51.976;4.616;2022-10-16T03:52:26;52908.31;;;-140.72;100.00
38197;BME280;26543;51.976;4.616;2022-10-16T03:54:51;52938.75;;;-140.72;100.00
38197;BME280;26543;51.976;4.616;2022-10-16T03:57:17;52932.66;;;-140.72;100.00
38197;BME280;26543;51.976;4.616;2022-10-16T03:59:43;52918.47;;;-140.72;100.00
38197;BME280;26543;51.976;4.616;2022-10-16T04:02:09;52924.56;;;-140.72;100.00
38197;BME280;26543;51.976;4.616;2022-10-16T04:04:35;52926.59;;;-140.72;100.00
38197;BME280;26543;51.976;4.616;2022-10-16T04:07:00;52930.66;;;-140.72;100.00
38197;BME280;26543;51.976;4.616;2022-10-16T04:09:26;52967.16;;;-140.72;100.00
38197;BME280;26543;51.976;4.616;2022-10-16T04:11:51;52934.69;;;-140.72;100.00
38197;BME280;26543;51.976;4.616;2022-10-16T04:14:18;52948.91;;;-140.72;100.00
38197;BME280;26543;51.976;4.616;2022-10-16T04:16:43;52942.81;;;-140.72;100.00
38197;BME280;26543;51.976;4.616;2022-10-16T04:19:10;52906.28;;;-140.72;100.00
38197;BME280;26543;51.976;4.616;2022-10-16T04:21:35;52944.84;;;-140.72;100.00
38197;BME280;26543;51.976;4.616;2022-10-16T04:24:01;52922.53;;;-140.72;100.00
38197;BME280;26543;51.976;4.616;2022-10-16T04:26:26;52902.22;;;-140.72;100.00
38197;BME280;26543;51.976;4.616;2022-10-16T04:28:51;52892.09;;;-140.72;100.00
38197;BME280;26543;51.976;4.616;2022-10-16T04:31:17;52926.59;;;-140.72;100.00
38197;BME280;26543;51.976;4.616;2022-10-16T04:33:43;52906.28;;;-140.72;100.00
38197;BME280;26543;51.976;4.616;2022-10-16T04:36:10;52922.53;;;-140.72;100.00
38197;BME280;26543;51.976;4.616;2022-10-16T04:38:38;52948.91;;;-140.72;100.00
38197;BME280;26543;51.976;4.616;2022-10-16T04:41:05;52965.16;;;-140.72;100.00
38197;BME280;26543;51.976;4.616;2022-10-16T04:43:31;52924.56;;;-140.72;100.00
38197;BME280;26543;51.976;4.616;2022-10-16T04:45:57;52952.97;;;-140.72;100.00
38197;BME280;26543;51.976;4.616;2022-10-16T04:48:22;52936.72;;;-140.72;100.00
38197;BME280;26543;51.976;4.616;2022-10-16T04:50:48;52922.53;;;-140.72;100.00
38197;BME280;26543;51.976;4.616;2022-10-16T04:53:13;52940.78;;;-140.72;100.00
38197;BME280;26543;51.976;4.616;2022-10-16T04:55:41;52914.41;;;-140.72;100.00
38197;BME280;26543;51.976;4.616;2022-10-16T04:58:07;52914.41;;;-140.72;100.00
38197;BME280;26543;51.976;4.616;2022-10-16T05:00:33;52959.06;;;-140.72;100.00
38197;BME280;26543;51.976;4.616;2022-10-16T05:02:58;52924.56;;;-140.72;100.00
38197;BME280;26543;51.976;4.616;2022-10-16T05:05:26;52898.16;;;-140.72;100.00
38197;BME280;26543;51.976;4.616;2022-10-16T05:07:51;52910.34;;;-140.72;100.00
38197;BME280;26543;51.976;4.616;2022-10-16T05:10:17;52930.66;;;-140.72;100.00
38197;BME280;26543;51.976;4.616;2022-10-16T05:12:45;52942.81;;;-140.72;100.00
38197;BME280;26543;51.976;4.616;2022-10-16T05:15:10;52912.38;;;-140.72;100.00
38197;BME280;26543;51.976;4.616;2022-10-16T05:17:36;52906.28;;;-140.72;100.00
38197;BME280;26543;51.976;4.616;2022-10-16T05:20:02;52930.66;;;-140.72;100.00
38197;BME280;26543;51.976;4.616;2022-10-16T05:22:28;52926.59;;;-140.72;100.00
38197;BME280;26543;51.976;4.616;2022-10-16T05:24:53;52922.53;;;-140.72;100.00
38197;BME280;26543;51.976;4.616;2022-10-16T05:27:19;52924.56;;;-140.72;100.00
38197;BME280;26543;51.976;4.616;2022-10-16T05:29:46;52890.06;;;-140.72;100.00
38197;BME280;26543;51.976;4.616;2022-10-16T05:32:12;52940.78;;;-140.72;100.00
38197;BME280;26543;51.976;4.616;2022-10-16T05:34:38;52906.28;;;-140.72;100.00
38197;BME280;26543;51.976;4.616;2022-10-16T05:37:03;52906.28;;;-140.72;100.00
38197;BME280;26543;51.976;4.616;2022-10-16T05:39:28;52920.50;;;-140.72;100.00
38197;BME280;26543;51.976;4.616;2022-10-16T05:41:54;52902.22;;;-140.72;100.00
38197;BME280;26543;51.976;4.616;2022-10-16T05:44:19;52892.09;;;-140.72;100.00
38197;BME280;26543;51.976;4.616;2022-10-16T05:46:46;52932.66;;;-140.72;100.00
38197;BME280;26543;51.976;4.616;2022-10-16T05:49:11;52883.97;;;-140.72;100.00
38197;BME280;26543;51.976;4.616;2022-10-16T05:51:37;52918.47;;;-140.72;100.00
38197;BME280;26543;51.976;4.616;2022-10-16T05:54:02;52963.13;;;-140.72;100.00
38197;BME280;26543;51.976;4.616;2022-10-16T05:56:28;52936.72;;;-140.72;100.00
38197;BME280;26543;51.976;4.616;2022-10-16T05:58:53;52930.66;;;-140.72;100.00
38197;BME280;26543;51.976;4.616;2022-10-16T06:01:19;52946.88;;;-140.72;100.00
38197;BME280;26543;51.976;4.616;2022-10-16T06:03:46;52926.59;;;-140.72;100.00
38197;BME280;26543;51.976;4.616;2022-10-16T06:06:17;52934.69;;;-140.72;100.00
38197;BME280;26543;51.976;4.616;2022-10-16T06:08:43;52914.41;;;-140.72;100.00
38197;BME280;26543;51.976;4.616;2022-10-16T06:11:14;52928.63;;;-140.72;100.00
38197;BME280;26543;51.976;4.616;2022-10-16T06:13:40;52918.47;;;-140.72;100.00
38197;BME280;26543;51.976;4.616;2022-10-16T06:16:09;52938.75;;;-140.72;100.00
38197;BME280;26543;51.976;4.616;2022-10-16T06:18:34;52969.19;;;-140.72;100.00
38197;BME280;26543;51.976;4.616;2022-10-16T06:21:07;52922.53;;;-140.72;100.00
38197;BME280;26543;51.976;4.616;2022-10-16T06:23:33;52912.38;;;-140.72;100.00
38197;BME280;26543;51.976;4.616;2022-10-16T06:28:31;52942.81;;;-140.72;100.00
38197;BME280;26543;51.976;4.616;2022-10-16T06:31:00;52875.84;;;-140.72;100.00
38197;BME280;26543;51.976;4.616;2022-10-16T06:33:25;52924.56;;;-140.72;100.00
38197;BME280;26543;51.976;4.616;2022-10-16T06:35:51;52894.13;;;-140.72;100.00
38197;BME280;26543;51.976;4.616;2022-10-16T06:38:16;52938.75;;;-140.72;100.00
38197;BME280;26543;51.976;4.616;2022-10-16T06:40:41;52898.16;;;-140.72;100.00
38197;BME280;26543;51.976;4.616;2022-10-16T06:43:07;52922.53;;;-140.72;100.00
38197;BME280;26543;51.976;4.616;2022-10-16T06:45:32;52950.94;;;-140.72;100.00
38197;BME280;26543;51.976;4.616;2022-10-16T06:47:57;52926.59;;;-140.72;100.00
38197;BME280;26543;51.976;4.616;2022-10-16T06:50:23;52902.22;;;-140.72;100.00
38197;BME280;26543;51.976;4.616;2022-10-16T06:52:48;52918.47;;;-140.72;100.00
38197;BME280;26543;51.976;4.616;2022-10-16T06:55:14;52894.13;;;-140.72;100.00
38197;BME280;26543;51.976;4.616;2022-10-16T06:57:40;52920.50;;;-140.72;100.00
38197;BME280;26543;51.976;4.616;2022-10-16T07:00:06;52934.69;;;-140.72;100.00
38197;BME280;26543;51.976;4.616;2022-10-16T07:02:31;52934.69;;;-140.72;100.00
38197;BME280;26543;51.976;4.616;2022-10-16T07:04:57;52918.47;;;-140.72;100.00
38197;BME280;26543;51.976;4.616;2022-10-16T07:07:22;52914.41;;;-140.72;100.00
38197;BME280;26543;51.976;4.616;2022-10-16T07:09:49;52904.25;;;-140.72;100.00
38197;BME280;26543;51.976;4.616;2022-10-16T07:12:15;52916.44;;;-140.72;100.00
38197;BME280;26543;51.976;4.616;2022-10-16T07:14:40;52940.78;;;-140.72;100.00
38197;BME280;26543;51.976;4.616;2022-10-16T07:17:06;52908.31;;;-140.72;100.00
38197;BME280;26543;51.976;4.616;2022-10-16T07:19:31;52908.31;;;-140.72;100.00
38197;BME280;26543;51.976;4.616;2022-10-16T07:21:56;52914.41;;;-140.72;100.00
38197;BME280;26543;51.976;4.616;2022-10-16T07:24:22;52894.13;;;-140.72;100.00
38197;BME280;26543;51.976;4.616;2022-10-16T07:26:47;52918.47;;;-140.72;100.00
38197;BME280;26543;51.976;4.616;2022-10-16T07:29:15;52926.59;;;-140.72;100.00
38197;BME280;26543;51.976;4.616;2022-10-16T07:31:41;52890.06;;;-140.72;100.00
38197;BME280;26543;51.976;4.616;2022-10-16T07:34:07;52902.22;;;-140.72;100.00
38197;BME280;26543;51.976;4.616;2022-10-16T07:36:33;52896.16;;;-140.72;100.00
38197;BME280;26543;51.976;4.616;2022-10-16T07:38:58;52928.63;;;-140.72;100.00
38197;BME280;26543;51.976;4.616;2022-10-16T07:41:23;52906.28;;;-140.72;100.00
38197;BME280;26543;51.976;4.616;2022-10-16T07:43:50;52918.47;;;-140.72;100.00
38197;BME280;26543;51.976;4.616;2022-10-16T07:46:17;52896.16;;;-140.72;100.00
38197;BME280;26543;51.976;4.616;2022-10-16T07:48:43;52898.16;;;-140.72;100.00
38197;BME280;26543;51.976;4.616;2022-10-16T07:51:17;52910.34;;;-140.72;100.00
38197;BME280;26543;51.976;4.616;2022-10-16T07:53:43;52857.59;;;-140.72;100.00
38197;BME280;26543;51.976;4.616;2022-10-16T07:56:09;52908.31;;;-140.72;100.00
38197;BME280;26543;51.976;4.616;2022-10-16T07:58:36;52940.78;;;-140.72;100.00
38197;BME280;26543;51.976;4.616;2022-10-16T08:01:06;52934.69;;;-140.72;100.00
38197;BME280;26543;51.976;4.616;2022-10-16T08:03:32;52892.09;;;-140.72;100.00
38197;BME280;26543;51.976;4.616;2022-10-16T08:05:57;52902.22;;;-140.72;100.00
38197;BME280;26543;51.976;4.616;2022-10-16T08:08:23;52904.25;;;-140.72;100.00
38197;BME280;26543;51.976;4.616;2022-10-16T08:10:48;52892.09;;;-140.72;100.00
38197;BME280;26543;51.976;4.616;2022-10-16T08:13:14;52865.69;;;-140.72;100.00
38197;BME280;26543;51.976;4.616;2022-10-16T08:15:41;52904.25;;;-140.72;100.00
38197;BME280;26543;51.976;4.616;2022-10-16T08:18:07;52898.16;;;-140.72;100.00
38197;BME280;26543;51.976;4.616;2022-10-16T08:20:33;52886.00;;;-140.72;100.00
38197;BME280;26543;51.976;4.616;2022-10-16T08:22:59;52877.88;;;-140.72;100.00
38197;BME280;26543;51.976;4.616;2022-10-16T08:25:28;52865.69;;;-140.72;100.00
38197;BME280;26543;51.976;4.616;2022-10-16T08:27:53;52853.53;;;-140.72;100.00
38197;BME280;26543;51.976;4.616;2022-10-16T08:30:20;52877.88;;;-140.72;100.00
38197;BME280;26543;51.976;4.616;2022-10-16T08:32:46;52867.72;;;-140.72;100.00
38197;BME280;26543;51.976;4.616;2022-10-16T08:35:12;52869.75;;;-140.72;100.00
38197;BME280;26543;51.976;4.616;2022-10-16T08:37:38;52892.09;;;-140.72;100.00
38197;BME280;26543;51.976;4.616;2022-10-16T08:40:06;52841.34;;;-140.72;100.00
38197;BME280;26543;51.976;4.616;2022-10-16T08:50:40;52829.19;;;-140.72;100.00
38197;BME280;26543;51.976;4.616;2022-10-16T08:53:06;52863.66;;;-140.72;100.00
38197;BME280;26543;51.976;4.616;2022-10-16T08:55:49;52833.22;;;-140.72;100.00
38197;BME280;26543;51.976;4.616;2022-10-16T08:58:21;52886.00;;;-140.72;100.00
38197;BME280;26543;51.976;4.616;2022-10-16T09:00:54;52855.56;;;-140.72;100.00
38197;BME280;26543;51.976;4.616;2022-10-16T09:09:30;52837.28;;;-140.72;100.00
38197;BME280;26543;51.976;4.616;2022-10-16T09:12:14;52837.28;;;-140.72;100.00
38197;BME280;26543;51.976;4.616;2022-10-16T09:18:23;52837.28;;;-140.72;100.00
38197;BME280;26543;51.976;4.616;2022-10-16T09:23:36;52873.81;;;-140.72;100.00
38197;BME280;26543;51.976;4.616;2022-10-16T09:26:02;52821.06;;;-140.72;100.00
38197;BME280;26543;51.976;4.616;2022-10-16T09:28:29;52833.22;;;-140.72;100.00
38197;BME280;26543;51.976;4.616;2022-10-16T09:30:54;52800.75;;;-140.72;100.00
38197;BME280;26543;51.976;4.616;2022-10-16T09:33:23;52819.03;;;-140.72;100.00
38197;BME280;26543;51.976;4.616;2022-10-16T09:35:53;52817.00;;;-140.72;100.00
38197;BME280;26543;51.976;4.616;2022-10-16T09:38:31;52821.06;;;-140.72;100.00
38197;BME280;26543;51.976;4.616;2022-10-16T09:40:58;52790.63;;;-140.72;100.00
38197;BME280;26543;51.976;4.616;2022-10-16T09:43:28;52772.34;;;-140.72;100.00
38197;BME280;26543;51.976;4.616;2022-10-16T09:48:51;52786.56;;;-140.72;100.00
38197;BME280;26543;51.976;4.616;2022-10-16T09:54:00;52778.44;;;-140.72;100.00
38197;BME280;26543;51.976;4.616;2022-10-16T09:56:28;52762.22;;;-140.72;100.00
38197;BME280;26543;51.976;4.616;2022-10-16T09:58:59;52788.59;;;-140.72;100.00
38197;BME280;26543;51.976;4.616;2022-10-16T10:01:30;52743.94;;;-140.72;100.00
38197;BME280;26543;51.976;4.616;2022-10-16T10:03:57;52772.34;;;-140.72;100.00
38197;BME280;26543;51.976;4.616;2022-10-16T10:06:33;52752.06;;;-140.72;100.00
38197;BME280;26543;51.976;4.616;2022-10-16T10:11:59;52774.38;;;-140.72;100.00
38197;BME280;26543;51.976;4.616;2022-10-16T10:14:43;52745.97;;;-140.72;100.00
38197;BME280;26543;51.976;4.616;2022-10-16T10:19:40;52750.03;;;-140.72;100.00
38197;BME280;26543;51.976;4.616;2022-10-16T10:22:23;52778.44;;;-140.72;100.00
38197;BME280;26543;51.976;4.616;2022-10-16T10:25:36;52741.91;;;-140.72;100.00
38197;BME280;26543;51.976;4.616;2022-10-16T10:30:43;52750.03;;;-140.72;100.00
38197;BME280;26543;51.976;4.616;2022-10-16T10:36:08;52733.78;;;-140.72;100.00
38197;BME280;26543;51.976;4.616;2022-10-16T10:38:49;52731.75;;;-140.72;100.00
38197;BME280;26543;51.976;4.616;2022-10-16T10:41:37;52719.59;;;-140.72;100.00
38197;BME280;26543;51.976;4.616;2022-10-16T10:47:17;52741.91;;;-140.72;100.00
38197;BME280;26543;51.976;4.616;2022-10-16T10:52:39;52589.72;;;-140.72;100.00
38197;BME280;26543;51.976;4.616;2022-10-16T11:03:02;52463.91;;;-140.72;0.00
38197;BME280;26543;51.976;4.616;2022-10-16T11:05:40;52480.16;;;-140.72;0.00
38197;BME280;26543;51.976;4.616;2022-10-16T11:08:31;52467.97;;;-140.72;0.00
38197;BME280;26543;51.976;4.616;2022-10-16T11:11:15;52480.16;;;-140.72;0.00
38197;BME280;26543;51.976;4.616;2022-10-16T11:13:56;52415.22;;;-140.72;0.00
38197;BME280;26543;51.976;4.616;2022-10-16T11:16:34;52455.78;;;-140.72;0.00
38197;BME280;26543;51.976;4.616;2022-10-16T11:21:41;52358.41;;;-140.72;0.00
38197;BME280;26543;51.976;4.616;2022-10-16T11:26:54;52366.50;;;-140.72;0.00
38197;BME280;26543;51.976;4.616;2022-10-16T11:29:27;52358.41;;;-140.72;0.00
38197;BME280;26543;51.976;4.616;2022-10-16T11:32:04;52467.97;;;-140.72;0.00
38197;BME280;26543;51.976;4.616;2022-10-16T11:34:42;52463.91;;;-140.72;0.00
38197;BME280;26543;51.976;4.616;2022-10-16T11:37:15;52506.53;;;-140.72;0.00
38197;BME280;26543;51.976;4.616;2022-10-16T11:39:43;52496.38;;;-140.72;0.00
38197;BME280;26543;51.976;4.616;2022-10-16T11:47:48;52443.63;;;-140.72;0.00
38197;BME280;26543;51.976;4.616;2022-10-16T11:55:34;52364.47;;;-140.72;0.00
38197;BME280;26543;51.976;4.616;2022-10-16T11:58:15;52311.72;;;-140.72;0.00
38197;BME280;26543;51.976;4.616;2022-10-16T12:03:44;52336.06;;;-140.72;0.00
38197;BME280;26543;51.976;4.616;2022-10-16T12:08:38;52417.25;;;-140.72;0.00
38197;BME280;26543;51.976;4.616;2022-10-16T12:11:19;52427.38;;;-140.72;0.00
38197;BME280;26543;51.976;4.616;2022-10-16T12:13:45;52463.91;;;-140.72;0.00
38197;BME280;26543;51.976;4.616;2022-10-16T12:18:39;52378.69;;;-140.72;0.00
38197;BME280;26543;51.976;4.616;2022-10-16T12:21:06;52370.56;;;-140.72;0.00
38197;BME280;26543;51.976;4.616;2022-10-16T12:23:36;52380.72;;;-140.72;0.00
38197;BME280;26543;51.976;4.616;2022-10-16T12:26:03;52317.81;;;-140.72;0.00
38197;BME280;26543;51.976;4.616;2022-10-16T12:28:31;52340.13;;;-140.72;0.00
38197;BME280;26543;51.976;4.616;2022-10-16T12:31:01;52356.38;;;-140.72;0.00
38197;BME280;26543;51.976;4.616;2022-10-16T12:33:30;52342.16;;;-140.72;0.00
38197;BME280;26543;51.976;4.616;2022-10-16T12:35:57;52368.53;;;-140.72;0.00
38197;BME280;26543;51.976;4.616;2022-10-16T12:38:45;52380.72;;;-140.72;0.00
38197;BME280;26543;51.976;4.616;2022-10-16T12:41:11;52386.81;;;-140.72;0.00
38197;BME280;26543;51.976;4.616;2022-10-16T12:43:43;52390.84;;;-140.72;0.00
38197;BME280;26543;51.976;4.616;2022-10-16T12:48:35;52553.19;;;-140.72;0.00
38197;BME280;26543;51.976;4.616;2022-10-16T12:51:32;52553.19;;;-140.72;0.00
38197;BME280;26543;51.976;4.616;2022-10-16T12:54:12;52573.50;;;-140.72;0.00
38197;BME280;26543;51.976;4.616;2022-10-16T12:56:49;52520.72;;;-140.72;0.00
38197;BME280;26543;51.976;4.616;2022-10-16T12:59:29;52512.59;;;-140.72;0.00
38197;BME280;26543;51.976;4.616;2022-10-16T13:02:08;52500.44;;;-140.72;0.00
38197;BME280;26543;51.976;4.616;2022-10-16T13:13:09;52573.50;;;-140.72;0.00
38197;BME280;26543;51.976;4.616;2022-10-16T13:15:56;52610.00;;;-140.72;0.00
38197;BME280;26543;51.976;4.616;2022-10-16T13:18:41;52612.03;;;-140.72;0.00
38197;BME280;26543;51.976;4.616;2022-10-16T13:29:20;52664.81;;;-140.72;0.00
38197;BME280;26543;51.976;4.616;2022-10-16T13:31:46;52658.72;;;-140.72;0.00
38197;BME280;26543;51.976;4.616;2022-10-16T13:34:20;52679.00;;;-140.72;0.00
38197;BME280;26543;51.976;4.616;2022-10-16T13:36:49;52636.38;;;-140.72;0.00
38197;BME280;26543;51.976;4.616;2022-10-16T13:44:49;52679.00;;;-140.72;0.00
38197;BME280;26543;51.976;4.616;2022-10-16T13:47:21;52683.06;;;-140.72;0.00
38197;BME280;26543;51.976;4.616;2022-10-16T13:50:02;52666.84;;;-140.72;0.00
38197;BME280;26543;51.976;4.616;2022-10-16T13:52:28;52676.97;;;-140.72;0.00
38197;BME280;26543;51.976;4.616;2022-10-16T13:54:54;52689.16;;;-140.72;0.00
38197;BME280;26543;51.976;4.616;2022-10-16T13:57:23;52691.19;;;-140.72;0.00
38197;BME280;26543;51.976;4.616;2022-10-16T13:59:48;52707.41;;;-140.72;0.00
38197;BME280;26543;51.976;4.616;2022-10-16T14:02:27;52666.84;;;-140.72;0.00
38197;BME280;26543;51.976;4.616;2022-10-16T14:04:55;52723.66;;;-140.72;0.00
38197;BME280;26543;51.976;4.616;2022-10-16T14:07:26;52695.25;;;-140.72;0.00
38197;BME280;26543;51.976;4.616;2022-10-16T14:09:54;52715.53;;;-140.72;0.00
38197;BME280;26543;51.976;4.616;2022-10-16T14:12:21;52713.50;;;-140.72;0.00
38197;BME280;26543;51.976;4.616;2022-10-16T14:14:49;52670.88;;;-140.72;0.00
38197;BME280;26543;51.976;4.616;2022-10-16T14:19:47;52719.59;;;-140.72;0.00
38197;BME280;26543;51.976;4.616;2022-10-16T14:22:34;52666.84;;;-140.72;0.00
38197;BME280;26543;51.976;4.616;2022-10-16T14:25:01;52729.75;;;-140.72;0.00
38197;BME280;26543;51.976;4.616;2022-10-16T14:27:33;52693.22;;;-140.72;0.00
38197;BME280;26543;51.976;4.616;2022-10-16T14:30:16;52721.63;;;-140.72;0.00
38197;BME280;26543;51.976;4.616;2022-10-16T14:32:58;52707.41;;;-140.72;0.00
38197;BME280;26543;51.976;4.616;2022-10-16T14:35:30;52723.66;;;-140.72;0.00
38197;BME280;26543;51.976;4.616;2022-10-16T14:37:57;52725.69;;;-140.72;0.00
38197;BME280;26543;51.976;4.616;2022-10-16T14:40:27;52715.53;;;-140.72;0.00
38197;BME280;26543;51.976;4.616;2022-10-16T14:42:53;52719.59;;;-140.72;0.00
38197;BME280;26543;51.976;4.616;2022-10-16T14:45:24;52674.94;;;-140.72;0.00
38197;BME280;26543;51.976;4.616;2022-10-16T14:47:54;52721.63;;;-140.72;0.00